sensor_id;sensor_type;location;lat;lon;timestamp;temperature;humidity
2202;DHT22;1107;48.654;9.250;2023-06-22T00:00:49;20.70;99.90
2202;DHT22;1107;48.654;9.250;2023-06-22T00:03:17;20.70;99.90
2202;DHT22;1107;48.654;9.250;2023-06-22T00:05:45;20.80;99.90
2202;DHT22;1107;48.654;9.250;2023-06-22T00:08:12;20.80;99.90
2202;DHT22;1107;48.654;9.250;2023-06-22T00:10:39;20.80;99.90
2202;DHT22;1107;48.654;9.250;2023-06-22T00:13:06;20.90;99.90
2202;DHT22;1107;48.654;9.250;2023-06-22T00:15:35;20.90;99.90
2202;DHT22;1107;48.654;9.250;2023-06-22T00:18:03;20.90;99.90
2202;DHT22;1107;48.654;9.250;2023-06-22T00:20:30;20.90;99.90
2202;DHT22;1107;48.654;9.250;2023-06-22T00:22:59;20.90;99.90
2202;DHT22;1107;48.654;9.250;2023-06-22T00:25:26;20.90;99.90
2202;DHT22;1107;48.654;9.250;2023-06-22T00:27:53;20.80;99.90
2202;DHT22;1107;48.654;9.250;2023-06-22T00:30:20;20.80;99.90
2202;DHT22;1107;48.654;9.250;2023-06-22T00:32:48;20.80;99.90
2202;DHT22;1107;48.654;9.250;2023-06-22T00:35:15;20.80;99.90
2202;DHT22;1107;48.654;9.250;2023-06-22T00:37:42;20.80;99.90
2202;DHT22;1107;48.654;9.250;2023-06-22T00:40:10;20.80;99.90
2202;DHT22;1107;48.654;9.250;2023-06-22T00:42:37;20.80;99.90
2202;DHT22;1107;48.654;9.250;2023-06-22T00:45:06;20.80;99.90
2202;DHT22;1107;48.654;9.250;2023-06-22T00:47:34;20.70;99.90
2202;DHT22;1107;48.654;9.250;2023-06-22T00:50:06;20.70;99.90
2202;DHT22;1107;48.654;9.250;2023-06-22T00:52:34;20.60;99.90
2202;DHT22;1107;48.654;9.250;2023-06-22T00:55:02;20.70;99.90
2202;DHT22;1107;48.654;9.250;2023-06-22T00:57:29;20.70;99.90
2202;DHT22;1107;48.654;9.250;2023-06-22T00:59:56;20.70;99.90
2202;DHT22;1107;48.654;9.250;2023-06-22T01:02:23;20.60;99.90
2202;DHT22;1107;48.654;9.250;2023-06-22T01:04:50;20.50;99.90
2202;DHT22;1107;48.654;9.250;2023-06-22T01:07:23;20.50;99.90
2202;DHT22;1107;48.654;9.250;2023-06-22T01:09:59;20.50;99.90
2202;DHT22;1107;48.654;9.250;2023-06-22T01:12:29;20.60;99.90
2202;DHT22;1107;48.654;9.250;2023-06-22T01:15:04;20.50;99.90
2202;DHT22;1107;48.654;9.250;2023-06-22T01:17:32;20.50;99.90
2202;DHT22;1107;48.654;9.250;2023-06-22T01:20:00;20.50;99.90
2202;DHT22;1107;48.654;9.250;2023-06-22T01:22:33;20.50;99.90
2202;DHT22;1107;48.654;9.250;2023-06-22T01:25:10;20.50;99.90
2202;DHT22;1107;48.654;9.250;2023-06-22T01:27:47;20.30;99.90
2202;DHT22;1107;48.654;9.250;2023-06-22T01:30:18;20.30;99.90
2202;DHT22;1107;48.654;9.250;2023-06-22T01:32:47;20.30;99.90
2202;DHT22;1107;48.654;9.250;2023-06-22T01:35:15;20.40;99.90
2202;DHT22;1107;48.654;9.250;2023-06-22T01:37:42;20.30;99.90
2202;DHT22;1107;48.654;9.250;2023-06-22T01:40:10;20.20;99.90
2202;DHT22;1107;48.654;9.250;2023-06-22T01:42:38;20.20;99.90
2202;DHT22;1107;48.654;9.250;2023-06-22T01:45:07;20.20;99.90
2202;DHT22;1107;48.654;9.250;2023-06-22T01:47:35;20.10;99.90
2202;DHT22;1107;48.654;9.250;2023-06-22T01:50:04;20.10;99.90
2202;DHT22;1107;48.654;9.250;2023-06-22T01:52:31;20.00;99.90
2202;DHT22;1107;48.654;9.250;2023-06-22T01:54:59;20.00;99.90
2202;DHT22;1107;48.654;9.250;2023-06-22T01:57:26;20.10;99.90
2202;DHT22;1107;48.654;9.250;2023-06-22T02:00:00;20.20;99.90
2202;DHT22;1107;48.654;9.250;2023-06-22T02:02:31;20.30;99.90
2202;DHT22;1107;48.654;9.250;2023-06-22T02:05:04;20.40;99.90
2202;DHT22;1107;48.654;9.250;2023-06-22T02:07:36;20.40;99.90
2202;DHT22;1107;48.654;9.250;2023-06-22T02:10:08;20.40;99.90
2202;DHT22;1107;48.654;9.250;2023-06-22T02:12:38;20.40;99.90
2202;DHT22;1107;48.654;9.250;2023-06-22T02:15:07;20.50;99.90
2202;DHT22;1107;48.654;9.250;2023-06-22T02:17:35;20.50;99.90
2202;DHT22;1107;48.654;9.250;2023-06-22T02:20:04;20.40;99.90
2202;DHT22;1107;48.654;9.250;2023-06-22T02:22:34;20.40;99.90
2202;DHT22;1107;48.654;9.250;2023-06-22T02:25:01;20.40;99.90
2202;DHT22;1107;48.654;9.250;2023-06-22T02:27:28;20.40;99.90
2202;DHT22;1107;48.654;9.250;2023-06-22T02:29:55;20.20;99.90
2202;DHT22;1107;48.654;9.250;2023-06-22T02:32:21;20.10;99.90
2202;DHT22;1107;48.654;9.250;2023-06-22T02:34:48;19.90;99.90
2202;DHT22;1107;48.654;9.250;2023-06-22T02:37:17;19.90;99.90
2202;DHT22;1107;48.654;9.250;2023-06-22T02:39:44;19.80;99.90
2202;DHT22;1107;48.654;9.250;2023-06-22T02:42:11;19.70;99.90
2202;DHT22;1107;48.654;9.250;2023-06-22T02:44:38;19.70;99.90
2202;DHT22;1107;48.654;9.250;2023-06-22T02:47:05;19.70;99.90
2202;DHT22;1107;48.654;9.250;2023-06-22T02:49:32;19.70;99.90
2202;DHT22;1107;48.654;9.250;2023-06-22T02:51:59;19.60;99.90
2202;DHT22;1107;48.654;9.250;2023-06-22T02:54:27;19.60;99.90
2202;DHT22;1107;48.654;9.250;2023-06-22T02:56:54;19.70;99.90
2202;DHT22;1107;48.654;9.250;2023-06-22T02:59:21;19.80;99.90
2202;DHT22;1107;48.654;9.250;2023-06-22T03:01:49;19.80;99.90
2202;DHT22;1107;48.654;9.250;2023-06-22T03:04:16;19.80;99.90
2202;DHT22;1107;48.654;9.250;2023-06-22T03:06:43;19.80;99.90
2202;DHT22;1107;48.654;9.250;2023-06-22T03:09:10;19.70;99.90
2202;DHT22;1107;48.654;9.250;2023-06-22T03:11:38;19.70;99.90
2202;DHT22;1107;48.654;9.250;2023-06-22T03:14:05;19.70;99.90
2202;DHT22;1107;48.654;9.250;2023-06-22T03:16:32;19.80;99.90
2202;DHT22;1107;48.654;9.250;2023-06-22T03:18:59;19.90;99.90
2202;DHT22;1107;48.654;9.250;2023-06-22T03:21:28;19.90;99.90
2202;DHT22;1107;48.654;9.250;2023-06-22T03:23:55;20.00;99.90
2202;DHT22;1107;48.654;9.250;2023-06-22T03:26:22;20.00;99.90
2202;DHT22;1107;48.654;9.250;2023-06-22T03:28:53;20.00;99.90
2202;DHT22;1107;48.654;9.250;2023-06-22T03:31:20;20.00;99.90
2202;DHT22;1107;48.654;9.250;2023-06-22T03:33:47;20.00;99.90
2202;DHT22;1107;48.654;9.250;2023-06-22T03:36:15;20.00;99.90
2202;DHT22;1107;48.654;9.250;2023-06-22T03:38:44;20.00;99.90
2202;DHT22;1107;48.654;9.250;2023-06-22T03:41:11;20.00;99.90
2202;DHT22;1107;48.654;9.250;2023-06-22T03:43:38;19.90;99.90
2202;DHT22;1107;48.654;9.250;2023-06-22T03:46:06;19.90;99.90
2202;DHT22;1107;48.654;9.250;2023-06-22T03:48:33;19.90;99.90
2202;DHT22;1107;48.654;9.250;2023-06-22T03:51:02;20.00;99.90
2202;DHT22;1107;48.654;9.250;2023-06-22T03:53:29;20.00;99.90
2202;DHT22;1107;48.654;9.250;2023-06-22T03:55:56;20.00;99.90
2202;DHT22;1107;48.654;9.250;2023-06-22T03:58:23;20.10;99.90
2202;DHT22;1107;48.654;9.250;2023-06-22T04:00:51;20.10;99.90
2202;DHT22;1107;48.654;9.250;2023-06-22T04:03:20;20.10;99.90
2202;DHT22;1107;48.654;9.250;2023-06-22T04:05:47;20.20;99.90
2202;DHT22;1107;48.654;9.250;2023-06-22T04:08:14;20.20;99.90
2202;DHT22;1107;48.654;9.250;2023-06-22T04:10:41;20.20;99.90
2202;DHT22;1107;48.654;9.250;2023-06-22T04:13:08;20.10;99.90
2202;DHT22;1107;48.654;9.250;2023-06-22T04:15:35;20.10;99.90
2202;DHT22;1107;48.654;9.250;2023-06-22T04:18:02;20.10;99.90
2202;DHT22;1107;48.654;9.250;2023-06-22T04:20:31;20.20;99.90
2202;DHT22;1107;48.654;9.250;2023-06-22T04:22:58;20.20;99.90
2202;DHT22;1107;48.654;9.250;2023-06-22T04:25:25;20.20;99.90
2202;DHT22;1107;48.654;9.250;2023-06-22T04:27:51;20.30;99.90
2202;DHT22;1107;48.654;9.250;2023-06-22T04:30:18;20.40;99.90
2202;DHT22;1107;48.654;9.250;2023-06-22T04:32:45;20.40;99.90
2202;DHT22;1107;48.654;9.250;2023-06-22T04:35:23;20.50;99.90
2202;DHT22;1107;48.654;9.250;2023-06-22T04:37:53;20.70;99.90
2202;DHT22;1107;48.654;9.250;2023-06-22T04:40:22;20.80;99.90
2202;DHT22;1107;48.654;9.250;2023-06-22T04:42:49;20.90;99.90
2202;DHT22;1107;48.654;9.250;2023-06-22T04:45:19;21.00;99.90
2202;DHT22;1107;48.654;9.250;2023-06-22T04:47:46;21.10;99.90
2202;DHT22;1107;48.654;9.250;2023-06-22T04:50:13;21.20;99.90
2202;DHT22;1107;48.654;9.250;2023-06-22T04:52:40;21.20;99.90
2202;DHT22;1107;48.654;9.250;2023-06-22T04:55:09;21.30;99.90
2202;DHT22;1107;48.654;9.250;2023-06-22T04:57:36;21.40;99.90
2202;DHT22;1107;48.654;9.250;2023-06-22T05:00:06;21.40;99.90
2202;DHT22;1107;48.654;9.250;2023-06-22T05:02:42;21.50;99.90
2202;DHT22;1107;48.654;9.250;2023-06-22T05:05:09;21.50;99.90
2202;DHT22;1107;48.654;9.250;2023-06-22T05:07:39;21.60;99.90
2202;DHT22;1107;48.654;9.250;2023-06-22T05:10:10;21.70;99.90
2202;DHT22;1107;48.654;9.250;2023-06-22T05:12:39;21.80;99.90
2202;DHT22;1107;48.654;9.250;2023-06-22T05:15:07;21.90;99.90
2202;DHT22;1107;48.654;9.250;2023-06-22T05:17:35;21.90;99.90
2202;DHT22;1107;48.654;9.250;2023-06-22T05:20:02;21.90;99.90
2202;DHT22;1107;48.654;9.250;2023-06-22T05:22:31;21.80;99.90
2202;DHT22;1107;48.654;9.250;2023-06-22T05:24:58;21.90;99.90
2202;DHT22;1107;48.654;9.250;2023-06-22T05:27:27;21.90;99.90
2202;DHT22;1107;48.654;9.250;2023-06-22T05:29:54;21.90;99.90
2202;DHT22;1107;48.654;9.250;2023-06-22T05:32:20;22.10;99.90
2202;DHT22;1107;48.654;9.250;2023-06-22T05:34:47;22.30;99.90
2202;DHT22;1107;48.654;9.250;2023-06-22T05:37:14;22.50;99.90
2202;DHT22;1107;48.654;9.250;2023-06-22T05:39:41;22.60;99.90
2202;DHT22;1107;48.654;9.250;2023-06-22T05:42:08;22.80;99.90
2202;DHT22;1107;48.654;9.250;2023-06-22T05:44:36;22.90;99.90
2202;DHT22;1107;48.654;9.250;2023-06-22T05:47:05;23.10;99.90
2202;DHT22;1107;48.654;9.250;2023-06-22T05:49:32;23.20;99.90
2202;DHT22;1107;48.654;9.250;2023-06-22T05:51:59;23.20;99.90
2202;DHT22;1107;48.654;9.250;2023-06-22T05:54:27;23.40;99.90
2202;DHT22;1107;48.654;9.250;2023-06-22T05:56:54;23.50;99.90
2202;DHT22;1107;48.654;9.250;2023-06-22T05:59:21;23.70;99.90
2202;DHT22;1107;48.654;9.250;2023-06-22T06:01:49;23.90;99.90
2202;DHT22;1107;48.654;9.250;2023-06-22T06:04:17;24.00;99.90
2202;DHT22;1107;48.654;9.250;2023-06-22T06:06:44;24.20;99.90
2202;DHT22;1107;48.654;9.250;2023-06-22T06:09:12;24.30;99.90
2202;DHT22;1107;48.654;9.250;2023-06-22T06:11:39;24.40;99.90
2202;DHT22;1107;48.654;9.250;2023-06-22T06:14:06;24.60;99.90
2202;DHT22;1107;48.654;9.250;2023-06-22T06:16:33;24.70;99.90
2202;DHT22;1107;48.654;9.250;2023-06-22T06:19:02;24.80;99.90
2202;DHT22;1107;48.654;9.250;2023-06-22T06:21:28;24.80;99.90
2202;DHT22;1107;48.654;9.250;2023-06-22T06:23:55;24.90;99.90
2202;DHT22;1107;48.654;9.250;2023-06-22T06:26:22;25.10;99.90
2202;DHT22;1107;48.654;9.250;2023-06-22T06:28:53;25.20;99.90
2202;DHT22;1107;48.654;9.250;2023-06-22T06:31:20;25.40;99.90
2202;DHT22;1107;48.654;9.250;2023-06-22T06:33:47;25.60;99.90
2202;DHT22;1107;48.654;9.250;2023-06-22T06:36:15;25.80;99.90
2202;DHT22;1107;48.654;9.250;2023-06-22T06:38:42;25.90;99.90
2202;DHT22;1107;48.654;9.250;2023-06-22T06:41:09;26.20;99.90
2202;DHT22;1107;48.654;9.250;2023-06-22T06:43:36;26.30;99.90
2202;DHT22;1107;48.654;9.250;2023-06-22T06:46:03;26.60;99.90
2202;DHT22;1107;48.654;9.250;2023-06-22T06:48:30;26.50;99.90
2202;DHT22;1107;48.654;9.250;2023-06-22T06:50:57;26.60;99.90
2202;DHT22;1107;48.654;9.250;2023-06-22T06:53:25;26.80;99.90
2202;DHT22;1107;48.654;9.250;2023-06-22T06:55:53;27.00;99.90
2202;DHT22;1107;48.654;9.250;2023-06-22T06:58:20;27.20;99.90
2202;DHT22;1107;48.654;9.250;2023-06-22T07:00:48;27.40;99.90
2202;DHT22;1107;48.654;9.250;2023-06-22T07:03:15;27.50;99.90
2202;DHT22;1107;48.654;9.250;2023-06-22T07:05:42;27.70;99.90
2202;DHT22;1107;48.654;9.250;2023-06-22T07:08:09;27.90;99.90
2202;DHT22;1107;48.654;9.250;2023-06-22T07:10:37;28.20;99.90
2202;DHT22;1107;48.654;9.250;2023-06-22T07:13:04;28.40;99.90
2202;DHT22;1107;48.654;9.250;2023-06-22T07:15:31;28.60;99.90
2202;DHT22;1107;48.654;9.250;2023-06-22T07:17:58;28.70;99.90
2202;DHT22;1107;48.654;9.250;2023-06-22T07:20:25;28.90;99.90
2202;DHT22;1107;48.654;9.250;2023-06-22T07:22:52;29.00;99.90
2202;DHT22;1107;48.654;9.250;2023-06-22T07:25:19;29.30;99.90
2202;DHT22;1107;48.654;9.250;2023-06-22T07:27:58;29.60;99.90
2202;DHT22;1107;48.654;9.250;2023-06-22T07:30:27;29.90;99.90
2202;DHT22;1107;48.654;9.250;2023-06-22T07:32:54;30.00;99.90
2202;DHT22;1107;48.654;9.250;2023-06-22T07:35:21;30.20;99.90
2202;DHT22;1107;48.654;9.250;2023-06-22T07:37:48;30.30;99.90
2202;DHT22;1107;48.654;9.250;2023-06-22T07:40:15;30.50;99.90
2202;DHT22;1107;48.654;9.250;2023-06-22T07:42:42;30.30;99.90
2202;DHT22;1107;48.654;9.250;2023-06-22T07:45:10;30.40;99.90
2202;DHT22;1107;48.654;9.250;2023-06-22T07:47:37;30.50;99.90
2202;DHT22;1107;48.654;9.250;2023-06-22T07:50:05;30.60;99.90
2202;DHT22;1107;48.654;9.250;2023-06-22T07:52:32;30.70;99.90
2202;DHT22;1107;48.654;9.250;2023-06-22T07:54:59;30.80;99.90
2202;DHT22;1107;48.654;9.250;2023-06-22T07:57:26;31.00;99.90
2202;DHT22;1107;48.654;9.250;2023-06-22T07:59:59;30.90;99.90
2202;DHT22;1107;48.654;9.250;2023-06-22T08:02:27;30.80;99.90
2202;DHT22;1107;48.654;9.250;2023-06-22T08:04:54;30.80;99.90
2202;DHT22;1107;48.654;9.250;2023-06-22T08:07:21;30.80;99.90
2202;DHT22;1107;48.654;9.250;2023-06-22T08:09:48;31.00;99.90
2202;DHT22;1107;48.654;9.250;2023-06-22T08:12:15;31.50;99.90
2202;DHT22;1107;48.654;9.250;2023-06-22T08:14:43;31.90;99.90
2202;DHT22;1107;48.654;9.250;2023-06-22T08:17:11;32.20;99.90
2202;DHT22;1107;48.654;9.250;2023-06-22T08:19:40;32.80;99.90
2202;DHT22;1107;48.654;9.250;2023-06-22T08:22:07;33.40;99.90
2202;DHT22;1107;48.654;9.250;2023-06-22T08:24:34;33.60;99.90
2202;DHT22;1107;48.654;9.250;2023-06-22T08:27:01;33.80;99.90
2202;DHT22;1107;48.654;9.250;2023-06-22T08:29:28;34.00;99.90
2202;DHT22;1107;48.654;9.250;2023-06-22T08:31:55;34.00;99.90
2202;DHT22;1107;48.654;9.250;2023-06-22T08:34:22;33.60;99.90
2202;DHT22;1107;48.654;9.250;2023-06-22T08:36:52;33.30;99.90
2202;DHT22;1107;48.654;9.250;2023-06-22T08:39:19;33.60;99.90
2202;DHT22;1107;48.654;9.250;2023-06-22T08:41:46;33.50;99.90
2202;DHT22;1107;48.654;9.250;2023-06-22T08:44:13;33.70;99.90
2202;DHT22;1107;48.654;9.250;2023-06-22T08:46:40;34.20;99.90
2202;DHT22;1107;48.654;9.250;2023-06-22T08:49:07;34.70;99.90
2202;DHT22;1107;48.654;9.250;2023-06-22T08:51:35;35.30;99.90
2202;DHT22;1107;48.654;9.250;2023-06-22T08:54:04;35.60;99.90
2202;DHT22;1107;48.654;9.250;2023-06-22T08:56:31;35.10;99.90
2202;DHT22;1107;48.654;9.250;2023-06-22T08:58:58;34.80;99.90
2202;DHT22;1107;48.654;9.250;2023-06-22T09:01:25;34.70;99.90
2202;DHT22;1107;48.654;9.250;2023-06-22T09:03:52;34.40;99.90
2202;DHT22;1107;48.654;9.250;2023-06-22T09:06:23;34.80;99.90
2202;DHT22;1107;48.654;9.250;2023-06-22T09:08:50;35.30;99.90
2202;DHT22;1107;48.654;9.250;2023-06-22T09:11:18;35.90;99.90
2202;DHT22;1107;48.654;9.250;2023-06-22T09:13:45;36.00;99.90
2202;DHT22;1107;48.654;9.250;2023-06-22T09:16:13;35.10;99.90
2202;DHT22;1107;48.654;9.250;2023-06-22T09:18:40;34.70;99.90
2202;DHT22;1107;48.654;9.250;2023-06-22T09:21:07;34.70;99.90
2202;DHT22;1107;48.654;9.250;2023-06-22T09:23:34;34.80;99.90
2202;DHT22;1107;48.654;9.250;2023-06-22T09:26:01;34.50;99.90
2202;DHT22;1107;48.654;9.250;2023-06-22T09:28:31;34.30;99.90
2202;DHT22;1107;48.654;9.250;2023-06-22T09:30:58;34.10;99.90
2202;DHT22;1107;48.654;9.250;2023-06-22T09:33:26;34.50;99.90
2202;DHT22;1107;48.654;9.250;2023-06-22T09:35:53;34.10;99.90
2202;DHT22;1107;48.654;9.250;2023-06-22T09:38:20;33.90;99.90
2202;DHT22;1107;48.654;9.250;2023-06-22T09:40:47;33.00;99.90
2202;DHT22;1107;48.654;9.250;2023-06-22T09:43:13;32.80;99.90
2202;DHT22;1107;48.654;9.250;2023-06-22T09:45:42;33.10;99.90
2202;DHT22;1107;48.654;9.250;2023-06-22T09:48:09;33.30;99.90
2202;DHT22;1107;48.654;9.250;2023-06-22T09:50:36;34.10;99.90
2202;DHT22;1107;48.654;9.250;2023-06-22T09:53:03;34.40;99.90
2202;DHT22;1107;48.654;9.250;2023-06-22T09:55:30;34.50;99.90
2202;DHT22;1107;48.654;9.250;2023-06-22T09:57:57;34.60;99.90
2202;DHT22;1107;48.654;9.250;2023-06-22T10:00:24;34.40;99.90
2202;DHT22;1107;48.654;9.250;2023-06-22T10:02:53;34.20;99.90
2202;DHT22;1107;48.654;9.250;2023-06-22T10:05:21;34.10;99.90
2202;DHT22;1107;48.654;9.250;2023-06-22T10:07:48;33.60;99.90
2202;DHT22;1107;48.654;9.250;2023-06-22T10:10:15;33.40;99.90
2202;DHT22;1107;48.654;9.250;2023-06-22T10:12:44;33.00;99.90
2202;DHT22;1107;48.654;9.250;2023-06-22T10:15:11;32.70;99.90
2202;DHT22;1107;48.654;9.250;2023-06-22T10:17:38;32.40;99.90
2202;DHT22;1107;48.654;9.250;2023-06-22T10:20:08;32.50;99.90
2202;DHT22;1107;48.654;9.250;2023-06-22T10:22:38;32.50;99.90
2202;DHT22;1107;48.654;9.250;2023-06-22T10:25:06;32.80;99.90
2202;DHT22;1107;48.654;9.250;2023-06-22T10:27:33;33.40;99.90
2202;DHT22;1107;48.654;9.250;2023-06-22T10:30:00;33.60;99.90
2202;DHT22;1107;48.654;9.250;2023-06-22T10:32:27;33.50;99.90
2202;DHT22;1107;48.654;9.250;2023-06-22T10:34:54;33.50;99.90
2202;DHT22;1107;48.654;9.250;2023-06-22T10:37:23;33.60;99.90
2202;DHT22;1107;48.654;9.250;2023-06-22T10:39:50;33.60;99.90
2202;DHT22;1107;48.654;9.250;2023-06-22T10:42:17;33.70;99.90
2202;DHT22;1107;48.654;9.250;2023-06-22T10:44:44;34.00;99.90
2202;DHT22;1107;48.654;9.250;2023-06-22T10:47:11;33.90;99.90
2202;DHT22;1107;48.654;9.250;2023-06-22T10:49:38;33.60;99.90
2202;DHT22;1107;48.654;9.250;2023-06-22T10:52:06;33.00;99.90
2202;DHT22;1107;48.654;9.250;2023-06-22T10:54:35;33.00;99.90
2202;DHT22;1107;48.654;9.250;2023-06-22T10:57:03;33.00;99.90
2202;DHT22;1107;48.654;9.250;2023-06-22T10:59:30;33.10;99.90
2202;DHT22;1107;48.654;9.250;2023-06-22T11:01:57;32.90;99.90
2202;DHT22;1107;48.654;9.250;2023-06-22T11:04:24;32.80;99.90
2202;DHT22;1107;48.654;9.250;2023-06-22T11:06:51;32.80;99.90
2202;DHT22;1107;48.654;9.250;2023-06-22T11:09:18;32.60;99.90
2202;DHT22;1107;48.654;9.250;2023-06-22T11:11:49;32.50;99.90
2202;DHT22;1107;48.654;9.250;2023-06-22T11:14:16;32.70;99.90
2202;DHT22;1107;48.654;9.250;2023-06-22T11:16:43;32.70;99.90
2202;DHT22;1107;48.654;9.250;2023-06-22T11:19:12;32.80;99.90
2202;DHT22;1107;48.654;9.250;2023-06-22T11:21:39;32.60;99.90
2202;DHT22;1107;48.654;9.250;2023-06-22T11:24:06;32.20;99.90
2202;DHT22;1107;48.654;9.250;2023-06-22T11:26:33;32.30;99.90
2202;DHT22;1107;48.654;9.250;2023-06-22T11:29:02;32.20;99.90
2202;DHT22;1107;48.654;9.250;2023-06-22T11:31:31;32.40;99.90
2202;DHT22;1107;48.654;9.250;2023-06-22T11:33:58;32.60;99.90
2202;DHT22;1107;48.654;9.250;2023-06-22T11:36:25;32.80;99.90
2202;DHT22;1107;48.654;9.250;2023-06-22T11:38:52;32.90;99.90
2202;DHT22;1107;48.654;9.250;2023-06-22T11:41:19;32.90;99.90
2202;DHT22;1107;48.654;9.250;2023-06-22T11:43:46;32.80;99.90
2202;DHT22;1107;48.654;9.250;2023-06-22T11:46:15;32.60;99.90
2202;DHT22;1107;48.654;9.250;2023-06-22T11:48:42;32.20;99.90
2202;DHT22;1107;48.654;9.250;2023-06-22T11:51:09;31.90;99.90
2202;DHT22;1107;48.654;9.250;2023-06-22T11:53:35;31.80;99.90
2202;DHT22;1107;48.654;9.250;2023-06-22T11:56:02;31.70;99.90
2202;DHT22;1107;48.654;9.250;2023-06-22T11:58:29;31.70;99.90
2202;DHT22;1107;48.654;9.250;2023-06-22T12:00:56;32.00;99.90
2202;DHT22;1107;48.654;9.250;2023-06-22T12:03:24;32.00;99.90
2202;DHT22;1107;48.654;9.250;2023-06-22T12:05:52;32.30;99.90
2202;DHT22;1107;48.654;9.250;2023-06-22T12:08:19;32.40;99.90
2202;DHT22;1107;48.654;9.250;2023-06-22T12:10:46;32.50;99.90
2202;DHT22;1107;48.654;9.250;2023-06-22T12:13:13;32.50;99.90
2202;DHT22;1107;48.654;9.250;2023-06-22T12:15:40;32.50;99.90
2202;DHT22;1107;48.654;9.250;2023-06-22T12:18:07;32.40;99.90
2202;DHT22;1107;48.654;9.250;2023-06-22T12:20:36;32.40;99.90
2202;DHT22;1107;48.654;9.250;2023-06-22T12:23:02;32.30;99.90
2202;DHT22;1107;48.654;9.250;2023-06-22T12:25:29;32.30;99.90
2202;DHT22;1107;48.654;9.250;2023-06-22T12:27:56;32.10;99.90
2202;DHT22;1107;48.654;9.250;2023-06-22T12:30:23;31.90;99.90
2202;DHT22;1107;48.654;9.250;2023-06-22T12:32:50;31.80;99.90
2202;DHT22;1107;48.654;9.250;2023-06-22T12:35:17;31.60;99.90
2202;DHT22;1107;48.654;9.250;2023-06-22T12:37:45;31.30;99.90
2202;DHT22;1107;48.654;9.250;2023-06-22T12:40:12;31.20;99.90
2202;DHT22;1107;48.654;9.250;2023-06-22T12:42:40;31.10;99.90
2202;DHT22;1107;48.654;9.250;2023-06-22T12:45:08;31.10;99.90
2202;DHT22;1107;48.654;9.250;2023-06-22T12:47:35;31.10;99.90
2202;DHT22;1107;48.654;9.250;2023-06-22T12:50:02;31.20;99.90
2202;DHT22;1107;48.654;9.250;2023-06-22T12:52:30;31.20;99.90
2202;DHT22;1107;48.654;9.250;2023-06-22T12:54:59;31.10;99.90
2202;DHT22;1107;48.654;9.250;2023-06-22T12:57:26;31.10;99.90
2202;DHT22;1107;48.654;9.250;2023-06-22T12:59:53;31.10;99.90
2202;DHT22;1107;48.654;9.250;2023-06-22T13:02:19;31.10;99.90
2202;DHT22;1107;48.654;9.250;2023-06-22T13:04:46;31.10;99.90
2202;DHT22;1107;48.654;9.250;2023-06-22T13:07:13;31.10;99.90
2202;DHT22;1107;48.654;9.250;2023-06-22T13:09:40;31.10;99.90
2202;DHT22;1107;48.654;9.250;2023-06-22T13:12:09;31.20;99.90
2202;DHT22;1107;48.654;9.250;2023-06-22T13:14:36;31.40;99.90
2202;DHT22;1107;48.654;9.250;2023-06-22T13:17:03;31.40;99.90
2202;DHT22;1107;48.654;9.250;2023-06-22T13:19:30;31.70;99.90
2202;DHT22;1107;48.654;9.250;2023-06-22T13:21:58;32.00;99.90
2202;DHT22;1107;48.654;9.250;2023-06-22T13:24:25;32.50;99.90
2202;DHT22;1107;48.654;9.250;2023-06-22T13:26:52;32.70;99.90
2202;DHT22;1107;48.654;9.250;2023-06-22T13:29:21;32.70;99.90
2202;DHT22;1107;48.654;9.250;2023-06-22T13:31:48;32.70;99.90
2202;DHT22;1107;48.654;9.250;2023-06-22T13:34:15;32.50;99.90
2202;DHT22;1107;48.654;9.250;2023-06-22T13:36:42;32.40;99.90
2202;DHT22;1107;48.654;9.250;2023-06-22T13:39:09;32.40;99.90
2202;DHT22;1107;48.654;9.250;2023-06-22T13:41:36;32.50;99.90
2202;DHT22;1107;48.654;9.250;2023-06-22T13:44:03;32.70;99.90
2202;DHT22;1107;48.654;9.250;2023-06-22T13:46:33;32.80;99.90
2202;DHT22;1107;48.654;9.250;2023-06-22T13:49:00;32.80;99.90
2202;DHT22;1107;48.654;9.250;2023-06-22T13:51:26;32.80;99.90
2202;DHT22;1107;48.654;9.250;2023-06-22T13:53:53;32.60;99.90
2202;DHT22;1107;48.654;9.250;2023-06-22T13:56:20;32.50;99.90
2202;DHT22;1107;48.654;9.250;2023-06-22T13:58:47;32.70;99.90
2202;DHT22;1107;48.654;9.250;2023-06-22T14:01:14;32.70;99.90
2202;DHT22;1107;48.654;9.250;2023-06-22T14:03:42;32.70;99.90
2202;DHT22;1107;48.654;9.250;2023-06-22T14:06:11;32.60;99.90
2202;DHT22;1107;48.654;9.250;2023-06-22T14:08:38;32.50;99.90
2202;DHT22;1107;48.654;9.250;2023-06-22T14:11:05;32.40;99.90
2202;DHT22;1107;48.654;9.250;2023-06-22T14:13:31;32.20;99.90
2202;DHT22;1107;48.654;9.250;2023-06-22T14:15:58;32.20;99.90
2202;DHT22;1107;48.654;9.250;2023-06-22T14:18:25;32.00;99.90
2202;DHT22;1107;48.654;9.250;2023-06-22T14:20:54;31.90;99.90
2202;DHT22;1107;48.654;9.250;2023-06-22T14:23:20;31.90;99.90
2202;DHT22;1107;48.654;9.250;2023-06-22T14:25:47;32.10;99.90
2202;DHT22;1107;48.654;9.250;2023-06-22T14:28:14;32.20;99.90
2202;DHT22;1107;48.654;9.250;2023-06-22T14:30:42;32.20;99.90
2202;DHT22;1107;48.654;9.250;2023-06-22T14:33:09;32.60;99.90
2202;DHT22;1107;48.654;9.250;2023-06-22T14:35:36;33.00;99.90
2202;DHT22;1107;48.654;9.250;2023-06-22T14:38:04;33.00;99.90
2202;DHT22;1107;48.654;9.250;2023-06-22T14:40:31;33.00;99.90
2202;DHT22;1107;48.654;9.250;2023-06-22T14:42:58;33.10;99.90
2202;DHT22;1107;48.654;9.250;2023-06-22T14:45:25;33.10;99.90
2202;DHT22;1107;48.654;9.250;2023-06-22T14:47:52;33.00;99.90
2202;DHT22;1107;48.654;9.250;2023-06-22T14:50:19;33.00;99.90
2202;DHT22;1107;48.654;9.250;2023-06-22T14:52:46;33.10;99.90
2202;DHT22;1107;48.654;9.250;2023-06-22T14:55:14;33.10;99.90
2202;DHT22;1107;48.654;9.250;2023-06-22T14:57:41;32.80;99.90
2202;DHT22;1107;48.654;9.250;2023-06-22T15:00:09;32.70;99.90
2202;DHT22;1107;48.654;9.250;2023-06-22T15:02:36;32.60;99.90
2202;DHT22;1107;48.654;9.250;2023-06-22T15:05:03;32.50;99.90
2202;DHT22;1107;48.654;9.250;2023-06-22T15:07:30;32.30;99.90
2202;DHT22;1107;48.654;9.250;2023-06-22T15:09:57;32.30;99.90
2202;DHT22;1107;48.654;9.250;2023-06-22T15:12:25;32.30;99.90
2202;DHT22;1107;48.654;9.250;2023-06-22T15:14:53;32.20;99.90
2202;DHT22;1107;48.654;9.250;2023-06-22T15:17:19;32.10;99.90
2202;DHT22;1107;48.654;9.250;2023-06-22T15:19:46;31.90;99.90
2202;DHT22;1107;48.654;9.250;2023-06-22T15:22:13;31.80;99.90
2202;DHT22;1107;48.654;9.250;2023-06-22T15:24:43;31.90;97.60
2202;DHT22;1107;48.654;9.250;2023-06-22T15:27:11;31.80;96.50
2202;DHT22;1107;48.654;9.250;2023-06-22T15:29:40;31.50;92.40
2202;DHT22;1107;48.654;9.250;2023-06-22T15:32:08;31.40;91.00
2202;DHT22;1107;48.654;9.250;2023-06-22T15:34:35;31.20;91.50
2202;DHT22;1107;48.654;9.250;2023-06-22T15:37:01;31.10;90.40
2202;DHT22;1107;48.654;9.250;2023-06-22T15:39:28;30.80;82.40
2202;DHT22;1107;48.654;9.250;2023-06-22T15:41:55;30.80;77.90
2202;DHT22;1107;48.654;9.250;2023-06-22T15:44:22;30.70;76.70
2202;DHT22;1107;48.654;9.250;2023-06-22T15:46:51;30.60;76.70
2202;DHT22;1107;48.654;9.250;2023-06-22T15:49:18;30.60;72.60
2202;DHT22;1107;48.654;9.250;2023-06-22T15:51:45;30.50;70.00
2202;DHT22;1107;48.654;9.250;2023-06-22T15:54:12;30.40;67.30
2202;DHT22;1107;48.654;9.250;2023-06-22T15:56:39;30.50;68.70
2202;DHT22;1107;48.654;9.250;2023-06-22T15:59:06;30.30;68.20
2202;DHT22;1107;48.654;9.250;2023-06-22T16:01:32;30.30;66.80
2202;DHT22;1107;48.654;9.250;2023-06-22T16:04:01;30.30;64.60